PGT1673 LTAN-LTAN

Flight info

Callsign PGT1673
Flight time 0h 22m
Altitude 3000
Route LTAN DCT LTAN
Aircraft A21N/M-VGDW/C

Departure

Time 2026-04-22 20:49
Airport Konya Airport (LTAN)

Arrival

Time 2026-04-22 21:12
Airport Konya Airport (LTAN)
Time Latitude Longitude Altitude Speed Heading
2026-04-22 20:37 37.98508 32.57528 3394 ft 0 kts 105°
2026-04-22 20:42 37.98509 32.57524 3394 ft 3 kts 105°
2026-04-22 20:43 37.98512 32.57496 3394 ft 4 kts 51°
2026-04-22 20:43 37.98496 32.57477 3394 ft 4 kts 19°
2026-04-22 20:43 37.98475 32.57470 3394 ft 3 kts 16°
2026-04-22 20:43 37.98449 32.57461 3394 ft 3 kts 16°
2026-04-22 20:44 37.98447 32.57460 3394 ft 0 kts 16°
2026-04-22 20:46 37.98475 32.57470 3394 ft 10 kts 16°
2026-04-22 20:46 37.98580 32.57506 3394 ft 21 kts 14°
2026-04-22 20:46 37.98755 32.57564 3394 ft 29 kts 13°
2026-04-22 20:47 37.98923 32.57558 3394 ft 23 kts 319°
2026-04-22 20:47 37.99025 32.57409 3394 ft 22 kts 310°
2026-04-22 20:47 37.99122 32.57262 3394 ft 22 kts 310°
2026-04-22 20:47 37.99220 32.57119 3394 ft 21 kts 310°
2026-04-22 20:48 37.99281 32.56957 3394 ft 21 kts 285°
2026-04-22 20:48 37.99322 32.56788 3392 ft 15 kts 287°
2026-04-22 20:48 37.99318 32.56731 3393 ft 3 kts 208°
2026-04-22 20:48 37.99288 32.56720 3393 ft 13 kts 197°
2026-04-22 20:49 37.99007 32.56612 3395 ft 70 kts 197°
2026-04-22 20:49 37.98343 32.56361 3394 ft 130 kts 196°
2026-04-22 20:49 37.97341 32.55991 3575 ft 158 kts 197°
2026-04-22 20:49 37.96312 32.55610 4207 ft 152 kts 197°
2026-04-22 20:50 37.95410 32.55013 4771 ft 152 kts 236°
2026-04-22 20:50 37.95280 32.53691 5133 ft 169 kts 290°
2026-04-22 20:50 37.95841 32.52260 5487 ft 194 kts 308°
2026-04-22 20:50 37.97127 32.51529 5852 ft 219 kts 357°
2026-04-22 20:51 37.98550 32.51922 6082 ft 197 kts 13°
2026-04-22 20:51 37.99807 32.52409 6040 ft 183 kts 12°
2026-04-22 20:51 38.01027 32.52838 5920 ft 181 kts 10°
2026-04-22 20:51 38.02247 32.53223 5681 ft 181 kts
2026-04-22 20:52 38.03455 32.53562 5376 ft 176 kts
2026-04-22 20:52 38.04546 32.54126 5160 ft 163 kts 35°
2026-04-22 20:52 38.05182 32.55243 4893 ft 155 kts 72°
2026-04-22 20:52 38.05179 32.56541 4570 ft 149 kts 112°
2026-04-22 20:53 38.04541 32.57512 4306 ft 144 kts 154°
2026-04-22 20:53 38.03601 32.57884 4127 ft 142 kts 177°
2026-04-22 20:53 38.02631 32.57913 3952 ft 137 kts 192°
2026-04-22 20:53 38.01715 32.57642 3788 ft 136 kts 200°
2026-04-22 20:54 38.00815 32.57297 3692 ft 135 kts 201°
2026-04-22 20:54 37.99916 32.56961 3525 ft 134 kts 200°
2026-04-22 20:54 37.99034 32.56623 3396 ft 130 kts 200°
2026-04-22 20:54 37.98257 32.56327 3393 ft 106 kts 196°
2026-04-22 20:55 37.97376 32.55998 3426 ft 162 kts 197°
2026-04-22 20:55 37.96276 32.55586 4183 ft 162 kts 199°
2026-04-22 20:55 37.95309 32.55022 5297 ft 147 kts 230°
2026-04-22 20:55 37.95114 32.53804 5830 ft 161 kts 286°
2026-04-22 20:56 37.95867 32.52750 5813 ft 172 kts 338°
2026-04-22 20:56 37.97076 32.52689 5805 ft 179 kts
2026-04-22 20:56 37.98318 32.52839 5754 ft 179 kts
2026-04-22 20:56 37.99560 32.53054 5732 ft 180 kts
2026-04-22 20:57 38.00794 32.53337 5705 ft 180 kts
2026-04-22 20:57 38.02013 32.53693 5681 ft 180 kts 11°
2026-04-22 20:57 38.03223 32.54123 5620 ft 181 kts 13°
2026-04-22 20:57 38.04425 32.54596 5576 ft 181 kts 14°
2026-04-22 20:58 38.05622 32.55098 5539 ft 181 kts 14°
2026-04-22 20:58 38.06622 32.56006 5368 ft 181 kts 61°
2026-04-22 20:58 38.06672 32.57531 5098 ft 177 kts 122°
2026-04-22 20:58 38.05738 32.58313 4840 ft 156 kts 176°
2026-04-22 20:59 38.04704 32.58423 4563 ft 147 kts 180°
2026-04-22 20:59 38.03698 32.58357 4159 ft 141 kts 193°
2026-04-22 20:59 38.02781 32.58055 3994 ft 134 kts 200°
2026-04-22 20:59 38.01892 32.57705 3816 ft 133 kts 199°
2026-04-22 21:00 38.00995 32.57368 3719 ft 135 kts 201°
2026-04-22 21:00 38.00094 32.57028 3563 ft 135 kts 200°
2026-04-22 21:00 37.99204 32.56688 3403 ft 132 kts 200°
2026-04-22 21:00 37.98409 32.56386 3394 ft 108 kts 196°
2026-04-22 21:01 37.97532 32.56056 3410 ft 165 kts 198°
2026-04-22 21:01 37.96463 32.55658 4376 ft 145 kts 199°
2026-04-22 21:01 37.95482 32.55269 5337 ft 151 kts 201°
2026-04-22 21:01 37.94500 32.54704 5864 ft 164 kts 226°
2026-04-22 21:02 37.94110 32.53314 6089 ft 185 kts 276°
2026-04-22 21:02 37.94748 32.51881 6092 ft 198 kts 321°
2026-04-22 21:02 37.96088 32.51534 6111 ft 208 kts 12°
2026-04-22 21:02 37.97416 32.52348 6213 ft 212 kts 22°
2026-04-22 21:03 37.98732 32.53139 6006 ft 206 kts 22°
2026-04-22 21:03 37.99998 32.53930 5601 ft 206 kts 24°
2026-04-22 21:03 38.01233 32.54732 5260 ft 194 kts 24°
2026-04-22 21:03 38.02403 32.55496 4805 ft 185 kts 27°
2026-04-22 21:04 38.03007 32.56788 4364 ft 170 kts 98°
2026-04-22 21:04 38.02251 32.57648 4084 ft 170 kts 182°
2026-04-22 21:04 38.01021 32.57305 3748 ft 180 kts 192°
2026-04-22 21:04 37.99866 32.56935 3517 ft 163 kts 190°
2026-04-22 21:05 37.98828 32.56543 3395 ft 147 kts 194°
2026-04-22 21:05 37.97925 32.56204 3397 ft 133 kts 197°
2026-04-22 21:05 37.96826 32.55774 3573 ft 182 kts 195°
2026-04-22 21:05 37.95657 32.55303 4538 ft 172 kts 200°
2026-04-22 21:06 37.94627 32.54843 5803 ft 146 kts 204°
2026-04-22 21:06 37.93600 32.54264 6054 ft 178 kts 219°
2026-04-22 21:06 37.92832 32.52952 6347 ft 198 kts 253°
2026-04-22 21:06 37.92841 32.51172 6597 ft 210 kts 287°
2026-04-22 21:07 37.93715 32.49801 6490 ft 202 kts 328°
2026-04-22 21:07 37.95101 32.49580 6298 ft 210 kts 11°
2026-04-22 21:07 37.96467 32.50311 6103 ft 216 kts 23°
2026-04-22 21:07 37.97819 32.51212 5923 ft 235 kts 26°
2026-04-22 21:08 37.99450 32.52136 5152 ft 272 kts 18°
2026-04-22 21:08 38.01276 32.52901 4723 ft 277 kts 18°
2026-04-22 21:08 38.02600 32.54384 4751 ft 259 kts 94°
2026-04-22 21:08 38.01820 32.56102 5260 ft 225 kts 170°
2026-04-22 21:09 38.00287 32.55881 5925 ft 242 kts 213°
2026-04-22 21:09 37.99258 32.54260 6239 ft 225 kts 256°
2026-04-22 21:09 37.99421 32.52450 6165 ft 205 kts 302°
2026-04-22 21:09 38.00573 32.51559 5942 ft 199 kts 355°
2026-04-22 21:10 38.01808 32.52300 5277 ft 214 kts 53°
2026-04-22 21:10 38.02097 32.54120 4846 ft 208 kts 97°
2026-04-22 21:10 38.01851 32.55821 4554 ft 189 kts 96°
2026-04-22 21:10 38.01016 32.56830 4001 ft 169 kts 166°
2026-04-22 21:11 37.99848 32.56916 3521 ft 170 kts 191°
2026-04-22 21:11 37.98769 32.56517 3397 ft 152 kts 194°
2026-04-22 21:11 37.97844 32.56177 3397 ft 135 kts 197°
2026-04-22 21:11 37.97005 32.55872 3392 ft 81 kts 199°
2026-04-22 21:12 37.96668 32.55730 3432 ft 43 kts 197°
2026-04-22 21:12 37.96440 32.55705 3433 ft 27 kts 153°
2026-04-22 21:12 37.96386 32.55777 3433 ft 0 kts 97°
2026-04-22 21:19 37.96409 32.55825 3434 ft 14 kts 29°
2026-04-22 21:19 37.96728 32.55933 3434 ft 86 kts 18°
2026-04-22 21:20 37.97304 32.56159 3394 ft 81 kts 17°
2026-04-22 21:20 37.97814 32.56350 3395 ft 72 kts 17°
2026-04-22 21:20 37.98273 32.56523 3395 ft 65 kts 17°
2026-04-22 21:20 37.98603 32.56618 3395 ft 34 kts 334°
2026-04-22 21:21 37.98562 32.56416 3393 ft 27 kts 195°
2026-04-22 21:21 37.98141 32.56285 3395 ft 101 kts 196°
2026-04-22 21:21 37.97201 32.55934 3393 ft 174 kts 208°
2026-04-22 21:21 37.95978 32.55456 3591 ft 189 kts 198°
2026-04-22 21:22 37.95367 32.54240 4316 ft 188 kts 269°
2026-04-22 21:22 37.96037 32.52732 4711 ft 212 kts 332°
2026-04-22 21:22 37.97452 32.52618 5608 ft 203 kts 15°
2026-04-22 21:22 37.98703 32.53171 5526 ft 184 kts 15°
2026-04-22 21:23 37.99917 32.53639 5004 ft 188 kts 13°
2026-04-22 21:23 38.01270 32.54110 4318 ft 194 kts 14°
2026-04-22 21:23 38.02512 32.54542 4260 ft 179 kts 15°
2026-04-22 21:23 38.03638 32.55149 4218 ft 175 kts 44°
2026-04-22 21:24 38.03964 32.56463 4197 ft 154 kts 107°
2026-04-22 21:24 38.03558 32.57175 4197 ft 152 kts 150°
2026-04-22 21:24 38.02561 32.57453 3986 ft 148 kts 178°
2026-04-22 21:24 38.01552 32.57245 3748 ft 148 kts 189°
2026-04-22 21:25 38.00530 32.56926 3564 ft 153 kts 191°
2026-04-22 21:25 37.99508 32.56551 3405 ft 151 kts 192°
2026-04-22 21:25 37.98821 32.56296 3394 ft 46 kts 197°
2026-04-22 21:25 37.98675 32.56410 3393 ft 27 kts 108°
2026-04-22 21:26 37.98594 32.56751 3395 ft 45 kts 104°
2026-04-22 21:26 37.98562 32.57299 3394 ft 53 kts 97°
2026-04-22 21:26 37.98552 32.57476 3394 ft 7 kts 104°
2026-04-22 21:26 37.98544 32.57528 3394 ft 6 kts 107°
2026-04-22 21:27 37.98568 32.57599 3394 ft 8 kts 32°
2026-04-22 21:27 37.98577 32.57600 3394 ft 0 kts 348°
2026-04-22 21:27 37.98578 32.57600 3394 ft 0 kts 346°